Aérodrome :
LOGIN :

S'inscrire | Disclaimer

   EN    FR    IT 

 










Légende :    VFR   VFR Marginal   IFR   IFR Intensif   IFR Très Intensif
Visi : 
Plafond : 
>= 8 km
>= 3000ft
5 à 8 km
1000 à 3000 ft
1500m à 5 km
500 à 1000 ft
800 à 1500m
200 à 500 ft
< 800m
< 200 ft
Symboles :   Orages  Brouillard  Fortes neiges  Fortes précipitations  Vent > 20 kt
SIGMETs :   Divers  Orages  Givrage  Turbulence  Onde Orograph.  Cendres Volcan.






- Altitude de l'aérodrome : 424 ft
- Code IATA : QGY


LHPR - Györ Per

DERNIER METAR :
  • 190115Z AUTO 27004KT 3400 BR OVC021 M01/M01 Q1026

METARs EXPIRÉS :
  • 190045Z AUTO 29005KT 3600 BR BKN013 OVC024 M01/M01 Q1026
  • 190015Z AUTO 33004KT 3400 BR BKN003 OVC026 M01/M01 Q1026
  • 182345Z AUTO 35004KT 3300 BR OVC004 M01/M01 Q1026
  • 182315Z AUTO 05003KT 4000 BR OVC014 M01/M02 Q1026
  • 182245Z AUTO 16002KT 4400 BR OVC017 M01/M02 Q1026

TAF AMD TAF LHPR
Valide du 18 à 23h jusqu'au 19 à 03h UTC


182300Z 1823/1903 VRB02KT 5000 BR OVC015
TEMPO 1823/1903 1500 SN BR OVC005



MET'MAP, la Météo Aéronautique d'un coup d'oeil ! - Copyright ORBIFLY Décembre 2007 - Disclaimer

ORBIFLY MET'MAP TEAM :

Programmation & Développement : Alexandra Zaïnal
Sur une idée originale de : Baudouin d'Aumeries
Assistance à la programmation : Marc-Olivier Méhu
Soutien technique & logistique : Manuel Goepfert

Contact : metmap@orbifly.com




SOURCES & CREDITS :

   NOAA